sensor_id;sensor_type;location;lat;lon;timestamp;temperature;humidity
15625;DHT22;7912;51.376;6.126;2024-02-26T00:00:30;10.30;99.90
15625;DHT22;7912;51.376;6.126;2024-02-26T00:02:58;10.30;99.90
15625;DHT22;7912;51.376;6.126;2024-02-26T00:05:25;10.20;99.90
15625;DHT22;7912;51.376;6.126;2024-02-26T00:07:52;10.20;99.90
15625;DHT22;7912;51.376;6.126;2024-02-26T00:10:19;10.20;99.90
15625;DHT22;7912;51.376;6.126;2024-02-26T00:12:47;10.20;99.90
15625;DHT22;7912;51.376;6.126;2024-02-26T00:15:15;10.30;99.90
15625;DHT22;7912;51.376;6.126;2024-02-26T00:17:42;10.30;99.90
15625;DHT22;7912;51.376;6.126;2024-02-26T00:20:10;10.20;99.90
15625;DHT22;7912;51.376;6.126;2024-02-26T00:22:38;10.30;99.90
15625;DHT22;7912;51.376;6.126;2024-02-26T00:25:05;10.30;99.90
15625;DHT22;7912;51.376;6.126;2024-02-26T00:27:33;10.30;99.90
15625;DHT22;7912;51.376;6.126;2024-02-26T00:30:00;10.30;99.90
15625;DHT22;7912;51.376;6.126;2024-02-26T00:32:27;10.30;99.90
15625;DHT22;7912;51.376;6.126;2024-02-26T00:34:55;10.20;99.90
15625;DHT22;7912;51.376;6.126;2024-02-26T00:37:41;10.20;99.90
15625;DHT22;7912;51.376;6.126;2024-02-26T00:40:10;10.20;99.90
15625;DHT22;7912;51.376;6.126;2024-02-26T00:42:37;10.20;99.90
15625;DHT22;7912;51.376;6.126;2024-02-26T00:45:04;10.20;99.90
15625;DHT22;7912;51.376;6.126;2024-02-26T00:47:33;10.20;99.90
15625;DHT22;7912;51.376;6.126;2024-02-26T00:50:00;10.20;99.90
15625;DHT22;7912;51.376;6.126;2024-02-26T00:52:27;10.20;99.90
15625;DHT22;7912;51.376;6.126;2024-02-26T00:54:55;10.10;99.90
15625;DHT22;7912;51.376;6.126;2024-02-26T00:57:22;10.10;99.90
15625;DHT22;7912;51.376;6.126;2024-02-26T00:59:49;10.10;99.90
15625;DHT22;7912;51.376;6.126;2024-02-26T01:02:17;10.10;99.90
15625;DHT22;7912;51.376;6.126;2024-02-26T01:04:45;10.10;99.90
15625;DHT22;7912;51.376;6.126;2024-02-26T01:07:12;10.00;99.90
15625;DHT22;7912;51.376;6.126;2024-02-26T01:09:39;10.00;99.90
15625;DHT22;7912;51.376;6.126;2024-02-26T01:12:07;10.00;99.90
15625;DHT22;7912;51.376;6.126;2024-02-26T01:14:34;10.00;99.90
15625;DHT22;7912;51.376;6.126;2024-02-26T01:17:01;9.90;99.90
15625;DHT22;7912;51.376;6.126;2024-02-26T01:19:29;9.90;99.90
15625;DHT22;7912;51.376;6.126;2024-02-26T01:21:56;9.90;99.90
15625;DHT22;7912;51.376;6.126;2024-02-26T01:24:24;9.90;99.90
15625;DHT22;7912;51.376;6.126;2024-02-26T01:26:51;9.90;99.90
15625;DHT22;7912;51.376;6.126;2024-02-26T01:29:18;9.90;99.90
15625;DHT22;7912;51.376;6.126;2024-02-26T01:31:45;9.80;99.90
15625;DHT22;7912;51.376;6.126;2024-02-26T01:34:13;9.90;99.90
15625;DHT22;7912;51.376;6.126;2024-02-26T01:36:41;9.90;99.90
15625;DHT22;7912;51.376;6.126;2024-02-26T01:39:08;9.90;99.90
15625;DHT22;7912;51.376;6.126;2024-02-26T01:41:40;9.90;99.90
15625;DHT22;7912;51.376;6.126;2024-02-26T01:44:07;9.90;99.90
15625;DHT22;7912;51.376;6.126;2024-02-26T01:46:35;9.80;99.90
15625;DHT22;7912;51.376;6.126;2024-02-26T01:49:03;9.80;99.90
15625;DHT22;7912;51.376;6.126;2024-02-26T01:51:32;9.80;99.90
15625;DHT22;7912;51.376;6.126;2024-02-26T01:54:01;9.80;99.90
15625;DHT22;7912;51.376;6.126;2024-02-26T01:56:31;9.70;99.90
15625;DHT22;7912;51.376;6.126;2024-02-26T01:58:59;9.70;99.90
15625;DHT22;7912;51.376;6.126;2024-02-26T02:01:27;9.70;99.90
15625;DHT22;7912;51.376;6.126;2024-02-26T02:03:59;9.70;99.90
15625;DHT22;7912;51.376;6.126;2024-02-26T02:06:27;9.70;99.90
15625;DHT22;7912;51.376;6.126;2024-02-26T02:08:55;9.70;99.90
15625;DHT22;7912;51.376;6.126;2024-02-26T02:11:41;9.60;99.90
15625;DHT22;7912;51.376;6.126;2024-02-26T02:14:08;9.60;99.90
15625;DHT22;7912;51.376;6.126;2024-02-26T02:16:35;9.60;99.90
15625;DHT22;7912;51.376;6.126;2024-02-26T02:19:03;9.50;99.90
15625;DHT22;7912;51.376;6.126;2024-02-26T02:21:30;9.50;99.90
15625;DHT22;7912;51.376;6.126;2024-02-26T02:23:57;9.50;99.90
15625;DHT22;7912;51.376;6.126;2024-02-26T02:26:24;9.50;99.90
15625;DHT22;7912;51.376;6.126;2024-02-26T02:28:53;9.40;99.90
15625;DHT22;7912;51.376;6.126;2024-02-26T02:31:20;9.40;99.90
15625;DHT22;7912;51.376;6.126;2024-02-26T02:33:47;9.40;99.90
15625;DHT22;7912;51.376;6.126;2024-02-26T02:36:15;9.40;99.90
15625;DHT22;7912;51.376;6.126;2024-02-26T02:38:50;9.40;99.90
15625;DHT22;7912;51.376;6.126;2024-02-26T02:41:18;9.30;99.90
15625;DHT22;7912;51.376;6.126;2024-02-26T02:43:46;9.30;99.90
15625;DHT22;7912;51.376;6.126;2024-02-26T02:46:13;9.30;99.90
15625;DHT22;7912;51.376;6.126;2024-02-26T02:48:41;9.30;99.90
15625;DHT22;7912;51.376;6.126;2024-02-26T02:51:09;9.30;99.90
15625;DHT22;7912;51.376;6.126;2024-02-26T02:53:37;9.30;99.90
15625;DHT22;7912;51.376;6.126;2024-02-26T02:56:05;9.20;99.90
15625;DHT22;7912;51.376;6.126;2024-02-26T02:58:32;9.20;99.90
15625;DHT22;7912;51.376;6.126;2024-02-26T03:00:59;9.20;99.90
15625;DHT22;7912;51.376;6.126;2024-02-26T03:03:27;9.20;99.90
15625;DHT22;7912;51.376;6.126;2024-02-26T03:05:56;9.20;99.90
15625;DHT22;7912;51.376;6.126;2024-02-26T03:08:23;9.10;99.90
15625;DHT22;7912;51.376;6.126;2024-02-26T03:10:52;9.10;99.90
15625;DHT22;7912;51.376;6.126;2024-02-26T03:13:20;9.10;99.90
15625;DHT22;7912;51.376;6.126;2024-02-26T03:15:47;9.10;99.90
15625;DHT22;7912;51.376;6.126;2024-02-26T03:18:15;9.10;99.90
15625;DHT22;7912;51.376;6.126;2024-02-26T03:20:42;9.10;99.90
15625;DHT22;7912;51.376;6.126;2024-02-26T03:23:09;9.10;99.90
15625;DHT22;7912;51.376;6.126;2024-02-26T03:25:39;9.10;99.90
15625;DHT22;7912;51.376;6.126;2024-02-26T03:28:07;9.10;99.90
15625;DHT22;7912;51.376;6.126;2024-02-26T03:30:35;9.00;99.90
15625;DHT22;7912;51.376;6.126;2024-02-26T03:33:02;9.00;99.90
15625;DHT22;7912;51.376;6.126;2024-02-26T03:35:29;9.00;99.90
15625;DHT22;7912;51.376;6.126;2024-02-26T03:37:57;9.00;99.90
15625;DHT22;7912;51.376;6.126;2024-02-26T03:40:24;9.00;99.90
15625;DHT22;7912;51.376;6.126;2024-02-26T03:42:51;9.00;99.90
15625;DHT22;7912;51.376;6.126;2024-02-26T03:45:20;9.00;99.90
15625;DHT22;7912;51.376;6.126;2024-02-26T03:47:48;9.00;99.90
15625;DHT22;7912;51.376;6.126;2024-02-26T03:50:15;9.00;99.90
15625;DHT22;7912;51.376;6.126;2024-02-26T03:52:43;8.90;99.90
15625;DHT22;7912;51.376;6.126;2024-02-26T03:55:10;8.90;99.90
15625;DHT22;7912;51.376;6.126;2024-02-26T03:57:37;8.90;99.90
15625;DHT22;7912;51.376;6.126;2024-02-26T04:00:05;8.90;99.90
15625;DHT22;7912;51.376;6.126;2024-02-26T04:02:33;8.90;99.90
15625;DHT22;7912;51.376;6.126;2024-02-26T04:08:05;8.80;99.90
15625;DHT22;7912;51.376;6.126;2024-02-26T04:10:34;8.80;99.90
15625;DHT22;7912;51.376;6.126;2024-02-26T04:13:08;8.80;99.90
15625;DHT22;7912;51.376;6.126;2024-02-26T04:15:35;8.80;99.90
15625;DHT22;7912;51.376;6.126;2024-02-26T04:18:02;8.80;99.90
15625;DHT22;7912;51.376;6.126;2024-02-26T04:20:30;8.80;99.90
15625;DHT22;7912;51.376;6.126;2024-02-26T04:22:57;8.80;99.90
15625;DHT22;7912;51.376;6.126;2024-02-26T04:25:24;8.80;99.90
15625;DHT22;7912;51.376;6.126;2024-02-26T04:27:51;8.80;99.90
15625;DHT22;7912;51.376;6.126;2024-02-26T04:30:19;8.80;99.90
15625;DHT22;7912;51.376;6.126;2024-02-26T04:32:46;8.80;99.90
15625;DHT22;7912;51.376;6.126;2024-02-26T04:35:15;8.80;99.90
15625;DHT22;7912;51.376;6.126;2024-02-26T04:37:42;8.80;99.90
15625;DHT22;7912;51.376;6.126;2024-02-26T04:40:09;8.80;99.90
15625;DHT22;7912;51.376;6.126;2024-02-26T04:42:37;8.80;99.90
15625;DHT22;7912;51.376;6.126;2024-02-26T04:45:04;8.70;99.90
15625;DHT22;7912;51.376;6.126;2024-02-26T04:47:34;8.80;99.90
15625;DHT22;7912;51.376;6.126;2024-02-26T04:50:02;8.70;99.90
15625;DHT22;7912;51.376;6.126;2024-02-26T04:52:30;8.70;99.90
15625;DHT22;7912;51.376;6.126;2024-02-26T04:54:57;8.70;99.90
15625;DHT22;7912;51.376;6.126;2024-02-26T04:57:26;8.70;99.90
15625;DHT22;7912;51.376;6.126;2024-02-26T04:59:54;8.70;99.90
15625;DHT22;7912;51.376;6.126;2024-02-26T05:02:21;8.70;99.90
15625;DHT22;7912;51.376;6.126;2024-02-26T05:04:48;8.70;99.90
15625;DHT22;7912;51.376;6.126;2024-02-26T05:07:15;8.60;99.90
15625;DHT22;7912;51.376;6.126;2024-02-26T05:09:44;8.60;99.90
15625;DHT22;7912;51.376;6.126;2024-02-26T05:12:12;8.60;99.90
15625;DHT22;7912;51.376;6.126;2024-02-26T05:14:39;8.60;99.90
15625;DHT22;7912;51.376;6.126;2024-02-26T05:17:08;8.60;99.90
15625;DHT22;7912;51.376;6.126;2024-02-26T05:19:36;8.50;99.90
15625;DHT22;7912;51.376;6.126;2024-02-26T05:22:03;8.50;99.90
15625;DHT22;7912;51.376;6.126;2024-02-26T05:24:30;8.50;99.90
15625;DHT22;7912;51.376;6.126;2024-02-26T05:26:58;8.50;99.90
15625;DHT22;7912;51.376;6.126;2024-02-26T05:29:27;8.50;99.90
15625;DHT22;7912;51.376;6.126;2024-02-26T05:31:54;8.40;99.90
15625;DHT22;7912;51.376;6.126;2024-02-26T05:34:21;8.40;99.90
15625;DHT22;7912;51.376;6.126;2024-02-26T05:36:49;8.40;99.90
15625;DHT22;7912;51.376;6.126;2024-02-26T05:39:16;8.40;99.90
15625;DHT22;7912;51.376;6.126;2024-02-26T05:41:46;8.40;99.90
15625;DHT22;7912;51.376;6.126;2024-02-26T05:44:14;8.40;99.90
15625;DHT22;7912;51.376;6.126;2024-02-26T05:46:41;8.40;99.90
15625;DHT22;7912;51.376;6.126;2024-02-26T05:49:08;8.40;99.90
15625;DHT22;7912;51.376;6.126;2024-02-26T05:51:36;8.40;99.90
15625;DHT22;7912;51.376;6.126;2024-02-26T05:54:03;8.40;99.90
15625;DHT22;7912;51.376;6.126;2024-02-26T05:56:30;8.40;99.90
15625;DHT22;7912;51.376;6.126;2024-02-26T05:58:57;8.40;99.90
15625;DHT22;7912;51.376;6.126;2024-02-26T06:01:25;8.40;99.90
15625;DHT22;7912;51.376;6.126;2024-02-26T06:03:53;8.40;99.90
15625;DHT22;7912;51.376;6.126;2024-02-26T06:06:23;8.40;99.90
15625;DHT22;7912;51.376;6.126;2024-02-26T06:08:53;8.40;99.90
15625;DHT22;7912;51.376;6.126;2024-02-26T06:11:21;8.40;99.90
15625;DHT22;7912;51.376;6.126;2024-02-26T06:13:50;8.40;99.90
15625;DHT22;7912;51.376;6.126;2024-02-26T06:16:18;8.40;99.90
15625;DHT22;7912;51.376;6.126;2024-02-26T06:18:47;8.40;99.90
15625;DHT22;7912;51.376;6.126;2024-02-26T06:21:15;8.40;99.90
15625;DHT22;7912;51.376;6.126;2024-02-26T06:23:43;8.30;99.90
15625;DHT22;7912;51.376;6.126;2024-02-26T06:26:10;8.40;99.90
15625;DHT22;7912;51.376;6.126;2024-02-26T06:28:37;8.40;99.90
15625;DHT22;7912;51.376;6.126;2024-02-26T06:31:08;8.30;99.90
15625;DHT22;7912;51.376;6.126;2024-02-26T06:33:35;8.30;99.90
15625;DHT22;7912;51.376;6.126;2024-02-26T06:36:03;8.30;99.90
15625;DHT22;7912;51.376;6.126;2024-02-26T06:38:31;8.30;99.90
15625;DHT22;7912;51.376;6.126;2024-02-26T06:40:59;8.30;99.90
15625;DHT22;7912;51.376;6.126;2024-02-26T06:43:30;8.30;99.90
15625;DHT22;7912;51.376;6.126;2024-02-26T06:45:57;8.30;99.90
15625;DHT22;7912;51.376;6.126;2024-02-26T06:48:25;8.30;99.90
15625;DHT22;7912;51.376;6.126;2024-02-26T06:50:52;8.30;99.90
15625;DHT22;7912;51.376;6.126;2024-02-26T06:53:19;8.30;99.90
15625;DHT22;7912;51.376;6.126;2024-02-26T06:55:46;8.30;99.90
15625;DHT22;7912;51.376;6.126;2024-02-26T06:58:13;8.30;99.90
15625;DHT22;7912;51.376;6.126;2024-02-26T07:00:41;8.30;99.90
15625;DHT22;7912;51.376;6.126;2024-02-26T07:03:08;8.30;99.90
15625;DHT22;7912;51.376;6.126;2024-02-26T07:05:37;8.30;99.90
15625;DHT22;7912;51.376;6.126;2024-02-26T07:08:06;8.30;99.90
15625;DHT22;7912;51.376;6.126;2024-02-26T07:10:33;8.30;99.90
15625;DHT22;7912;51.376;6.126;2024-02-26T07:13:01;8.30;99.90
15625;DHT22;7912;51.376;6.126;2024-02-26T07:15:49;8.30;99.90
15625;DHT22;7912;51.376;6.126;2024-02-26T07:18:16;8.30;99.90
15625;DHT22;7912;51.376;6.126;2024-02-26T07:20:43;8.30;99.90
15625;DHT22;7912;51.376;6.126;2024-02-26T07:23:11;8.30;99.90
15625;DHT22;7912;51.376;6.126;2024-02-26T07:25:39;8.30;99.90
15625;DHT22;7912;51.376;6.126;2024-02-26T07:28:09;8.30;99.90
15625;DHT22;7912;51.376;6.126;2024-02-26T07:30:36;8.30;99.90
15625;DHT22;7912;51.376;6.126;2024-02-26T07:33:04;8.30;99.90
15625;DHT22;7912;51.376;6.126;2024-02-26T07:35:31;8.30;99.90
15625;DHT22;7912;51.376;6.126;2024-02-26T07:38:00;8.30;99.90
15625;DHT22;7912;51.376;6.126;2024-02-26T07:40:35;8.30;99.90
15625;DHT22;7912;51.376;6.126;2024-02-26T07:43:13;8.30;99.90
15625;DHT22;7912;51.376;6.126;2024-02-26T07:45:40;8.40;99.90
15625;DHT22;7912;51.376;6.126;2024-02-26T07:48:10;8.30;99.90
15625;DHT22;7912;51.376;6.126;2024-02-26T07:50:39;8.40;99.90
15625;DHT22;7912;51.376;6.126;2024-02-26T07:53:07;8.30;99.90
15625;DHT22;7912;51.376;6.126;2024-02-26T07:55:34;8.40;99.90
15625;DHT22;7912;51.376;6.126;2024-02-26T07:58:01;8.30;99.90
15625;DHT22;7912;51.376;6.126;2024-02-26T08:00:31;8.40;99.90
15625;DHT22;7912;51.376;6.126;2024-02-26T08:02:58;8.40;99.90
15625;DHT22;7912;51.376;6.126;2024-02-26T08:05:26;8.40;99.90
15625;DHT22;7912;51.376;6.126;2024-02-26T08:07:53;8.40;99.90
15625;DHT22;7912;51.376;6.126;2024-02-26T08:10:21;8.40;99.90
15625;DHT22;7912;51.376;6.126;2024-02-26T08:12:49;8.40;99.90
15625;DHT22;7912;51.376;6.126;2024-02-26T08:15:17;8.40;99.90
15625;DHT22;7912;51.376;6.126;2024-02-26T08:17:48;8.40;99.90
15625;DHT22;7912;51.376;6.126;2024-02-26T08:20:19;8.40;99.90
15625;DHT22;7912;51.376;6.126;2024-02-26T08:23:01;8.50;99.90
15625;DHT22;7912;51.376;6.126;2024-02-26T08:25:32;8.50;99.90
15625;DHT22;7912;51.376;6.126;2024-02-26T08:27:59;8.50;99.90
15625;DHT22;7912;51.376;6.126;2024-02-26T08:30:27;8.50;99.90
15625;DHT22;7912;51.376;6.126;2024-02-26T08:32:55;8.50;99.90
15625;DHT22;7912;51.376;6.126;2024-02-26T08:35:22;8.50;99.90
15625;DHT22;7912;51.376;6.126;2024-02-26T08:37:49;8.50;99.90
15625;DHT22;7912;51.376;6.126;2024-02-26T08:40:17;8.50;99.90
15625;DHT22;7912;51.376;6.126;2024-02-26T08:42:46;8.50;99.90
15625;DHT22;7912;51.376;6.126;2024-02-26T08:45:13;8.50;99.90
15625;DHT22;7912;51.376;6.126;2024-02-26T08:47:41;8.50;99.90
15625;DHT22;7912;51.376;6.126;2024-02-26T08:50:08;8.50;99.90
15625;DHT22;7912;51.376;6.126;2024-02-26T08:52:37;8.50;99.90
15625;DHT22;7912;51.376;6.126;2024-02-26T08:55:04;8.50;99.90
15625;DHT22;7912;51.376;6.126;2024-02-26T08:57:32;8.50;99.90
15625;DHT22;7912;51.376;6.126;2024-02-26T09:00:01;8.50;99.90
15625;DHT22;7912;51.376;6.126;2024-02-26T09:02:28;8.50;99.90
15625;DHT22;7912;51.376;6.126;2024-02-26T09:04:56;8.50;99.90
15625;DHT22;7912;51.376;6.126;2024-02-26T09:07:23;8.50;99.90
15625;DHT22;7912;51.376;6.126;2024-02-26T09:09:51;8.50;99.90
15625;DHT22;7912;51.376;6.126;2024-02-26T09:12:18;8.50;99.90
15625;DHT22;7912;51.376;6.126;2024-02-26T09:14:46;8.50;99.90
15625;DHT22;7912;51.376;6.126;2024-02-26T09:17:14;8.50;99.90
15625;DHT22;7912;51.376;6.126;2024-02-26T09:19:41;8.50;99.90
15625;DHT22;7912;51.376;6.126;2024-02-26T09:22:09;8.50;99.90
15625;DHT22;7912;51.376;6.126;2024-02-26T09:24:39;8.50;99.90
15625;DHT22;7912;51.376;6.126;2024-02-26T09:27:07;8.50;99.90
15625;DHT22;7912;51.376;6.126;2024-02-26T09:29:35;8.50;99.90
15625;DHT22;7912;51.376;6.126;2024-02-26T09:32:03;8.50;99.90
15625;DHT22;7912;51.376;6.126;2024-02-26T09:34:31;8.50;99.90
15625;DHT22;7912;51.376;6.126;2024-02-26T09:36:58;8.50;99.90
15625;DHT22;7912;51.376;6.126;2024-02-26T09:39:38;8.60;99.90
15625;DHT22;7912;51.376;6.126;2024-02-26T09:42:05;8.60;99.90
15625;DHT22;7912;51.376;6.126;2024-02-26T09:44:38;8.60;99.90
15625;DHT22;7912;51.376;6.126;2024-02-26T09:47:11;8.50;99.90
15625;DHT22;7912;51.376;6.126;2024-02-26T09:49:44;8.60;99.90
15625;DHT22;7912;51.376;6.126;2024-02-26T09:52:15;8.60;99.90
15625;DHT22;7912;51.376;6.126;2024-02-26T09:54:47;8.60;99.90
15625;DHT22;7912;51.376;6.126;2024-02-26T09:57:15;8.60;99.90
15625;DHT22;7912;51.376;6.126;2024-02-26T09:59:44;8.50;99.90
15625;DHT22;7912;51.376;6.126;2024-02-26T10:02:15;8.60;99.90
15625;DHT22;7912;51.376;6.126;2024-02-26T10:04:46;8.60;99.90
15625;DHT22;7912;51.376;6.126;2024-02-26T10:07:18;8.60;99.90
15625;DHT22;7912;51.376;6.126;2024-02-26T10:09:46;8.60;99.90
15625;DHT22;7912;51.376;6.126;2024-02-26T10:12:14;8.60;99.90
15625;DHT22;7912;51.376;6.126;2024-02-26T10:14:44;8.60;99.90
15625;DHT22;7912;51.376;6.126;2024-02-26T10:20:17;8.50;99.90
15625;DHT22;7912;51.376;6.126;2024-02-26T10:22:46;8.60;99.90
15625;DHT22;7912;51.376;6.126;2024-02-26T10:25:13;8.60;99.90
15625;DHT22;7912;51.376;6.126;2024-02-26T10:30:48;8.60;99.90
15625;DHT22;7912;51.376;6.126;2024-02-26T10:33:15;8.60;99.90
15625;DHT22;7912;51.376;6.126;2024-02-26T10:35:47;8.60;99.90
15625;DHT22;7912;51.376;6.126;2024-02-26T10:38:15;8.60;99.90
15625;DHT22;7912;51.376;6.126;2024-02-26T10:40:49;8.60;99.90
15625;DHT22;7912;51.376;6.126;2024-02-26T10:43:16;8.60;99.90
15625;DHT22;7912;51.376;6.126;2024-02-26T10:45:45;8.60;99.90
15625;DHT22;7912;51.376;6.126;2024-02-26T10:48:14;8.60;99.90
15625;DHT22;7912;51.376;6.126;2024-02-26T10:50:43;8.70;99.90
15625;DHT22;7912;51.376;6.126;2024-02-26T10:53:19;8.70;99.90
15625;DHT22;7912;51.376;6.126;2024-02-26T10:56:08;8.70;99.90
15625;DHT22;7912;51.376;6.126;2024-02-26T10:58:38;8.70;99.90
15625;DHT22;7912;51.376;6.126;2024-02-26T11:01:06;8.70;99.90
15625;DHT22;7912;51.376;6.126;2024-02-26T11:03:36;8.70;99.90
15625;DHT22;7912;51.376;6.126;2024-02-26T11:06:04;8.70;99.90
15625;DHT22;7912;51.376;6.126;2024-02-26T11:08:33;8.70;99.90
15625;DHT22;7912;51.376;6.126;2024-02-26T11:11:00;8.70;99.90
15625;DHT22;7912;51.376;6.126;2024-02-26T11:13:30;8.70;99.90
15625;DHT22;7912;51.376;6.126;2024-02-26T11:16:09;8.70;99.90
15625;DHT22;7912;51.376;6.126;2024-02-26T11:18:39;8.70;99.90
15625;DHT22;7912;51.376;6.126;2024-02-26T11:21:10;8.70;99.90
15625;DHT22;7912;51.376;6.126;2024-02-26T11:23:39;8.80;99.90
15625;DHT22;7912;51.376;6.126;2024-02-26T11:26:28;8.80;99.90
15625;DHT22;7912;51.376;6.126;2024-02-26T11:28:58;8.80;99.90
15625;DHT22;7912;51.376;6.126;2024-02-26T11:31:26;8.80;99.90
15625;DHT22;7912;51.376;6.126;2024-02-26T11:33:55;8.80;99.90
15625;DHT22;7912;51.376;6.126;2024-02-26T11:36:24;8.80;99.90
15625;DHT22;7912;51.376;6.126;2024-02-26T11:39:11;8.80;99.90
15625;DHT22;7912;51.376;6.126;2024-02-26T11:48:29;8.90;99.90
15625;DHT22;7912;51.376;6.126;2024-02-26T11:51:41;8.90;99.90
15625;DHT22;7912;51.376;6.126;2024-02-26T11:54:09;8.90;99.90
15625;DHT22;7912;51.376;6.126;2024-02-26T11:56:40;8.90;99.90
15625;DHT22;7912;51.376;6.126;2024-02-26T11:59:11;8.90;99.90
15625;DHT22;7912;51.376;6.126;2024-02-26T12:01:59;8.90;99.90
15625;DHT22;7912;51.376;6.126;2024-02-26T12:04:30;8.90;99.90
15625;DHT22;7912;51.376;6.126;2024-02-26T12:07:00;9.00;99.90
15625;DHT22;7912;51.376;6.126;2024-02-26T12:09:42;9.00;99.90
15625;DHT22;7912;51.376;6.126;2024-02-26T12:12:10;9.00;99.90
15625;DHT22;7912;51.376;6.126;2024-02-26T12:14:56;9.00;99.90
15625;DHT22;7912;51.376;6.126;2024-02-26T12:17:25;9.00;99.90
15625;DHT22;7912;51.376;6.126;2024-02-26T12:19:52;9.00;99.90
15625;DHT22;7912;51.376;6.126;2024-02-26T12:22:21;9.00;99.90
15625;DHT22;7912;51.376;6.126;2024-02-26T12:28:15;9.00;99.90
15625;DHT22;7912;51.376;6.126;2024-02-26T12:30:42;9.00;99.90
15625;DHT22;7912;51.376;6.126;2024-02-26T12:33:13;9.00;99.90
15625;DHT22;7912;51.376;6.126;2024-02-26T12:35:40;9.10;99.90
15625;DHT22;7912;51.376;6.126;2024-02-26T12:38:08;9.00;99.90
15625;DHT22;7912;51.376;6.126;2024-02-26T12:40:35;9.00;99.90
15625;DHT22;7912;51.376;6.126;2024-02-26T12:43:02;9.00;99.90
15625;DHT22;7912;51.376;6.126;2024-02-26T12:45:30;9.00;99.90
15625;DHT22;7912;51.376;6.126;2024-02-26T12:47:59;9.00;99.90
15625;DHT22;7912;51.376;6.126;2024-02-26T12:50:26;9.00;99.90
15625;DHT22;7912;51.376;6.126;2024-02-26T12:52:54;9.10;99.90
15625;DHT22;7912;51.376;6.126;2024-02-26T12:55:21;9.10;99.90
15625;DHT22;7912;51.376;6.126;2024-02-26T12:57:50;9.10;99.90
15625;DHT22;7912;51.376;6.126;2024-02-26T13:00:24;9.00;99.90
15625;DHT22;7912;51.376;6.126;2024-02-26T13:02:54;9.10;99.90
15625;DHT22;7912;51.376;6.126;2024-02-26T13:05:23;9.10;99.90
15625;DHT22;7912;51.376;6.126;2024-02-26T13:07:51;9.10;99.90
15625;DHT22;7912;51.376;6.126;2024-02-26T13:10:21;9.10;99.90
15625;DHT22;7912;51.376;6.126;2024-02-26T13:12:49;9.10;99.90
15625;DHT22;7912;51.376;6.126;2024-02-26T13:15:26;9.20;99.90
15625;DHT22;7912;51.376;6.126;2024-02-26T13:17:56;9.10;99.90
15625;DHT22;7912;51.376;6.126;2024-02-26T13:20:41;9.20;99.90
15625;DHT22;7912;51.376;6.126;2024-02-26T13:23:12;9.20;99.90
15625;DHT22;7912;51.376;6.126;2024-02-26T13:25:40;9.20;99.90
15625;DHT22;7912;51.376;6.126;2024-02-26T13:28:16;9.20;99.90
15625;DHT22;7912;51.376;6.126;2024-02-26T13:30:54;9.20;99.90
15625;DHT22;7912;51.376;6.126;2024-02-26T13:33:27;9.20;99.90
15625;DHT22;7912;51.376;6.126;2024-02-26T13:35:57;9.30;99.90
15625;DHT22;7912;51.376;6.126;2024-02-26T13:38:25;9.30;99.90
15625;DHT22;7912;51.376;6.126;2024-02-26T13:40:54;9.30;99.90
15625;DHT22;7912;51.376;6.126;2024-02-26T13:43:21;9.30;99.90
15625;DHT22;7912;51.376;6.126;2024-02-26T13:45:49;9.30;99.90
15625;DHT22;7912;51.376;6.126;2024-02-26T13:48:17;9.30;99.90
15625;DHT22;7912;51.376;6.126;2024-02-26T13:50:44;9.30;99.90
15625;DHT22;7912;51.376;6.126;2024-02-26T13:53:15;9.30;99.90
15625;DHT22;7912;51.376;6.126;2024-02-26T13:55:42;9.30;99.90
15625;DHT22;7912;51.376;6.126;2024-02-26T13:58:13;9.30;99.90
15625;DHT22;7912;51.376;6.126;2024-02-26T14:00:41;9.30;99.90
15625;DHT22;7912;51.376;6.126;2024-02-26T14:03:10;9.40;99.90
15625;DHT22;7912;51.376;6.126;2024-02-26T14:05:38;9.30;99.90
15625;DHT22;7912;51.376;6.126;2024-02-26T14:08:05;9.40;99.90
15625;DHT22;7912;51.376;6.126;2024-02-26T14:10:33;9.40;99.90
15625;DHT22;7912;51.376;6.126;2024-02-26T14:24:07;9.40;99.90
15625;DHT22;7912;51.376;6.126;2024-02-26T14:27:08;9.40;99.90
15625;DHT22;7912;51.376;6.126;2024-02-26T14:42:57;9.40;99.90
15625;DHT22;7912;51.376;6.126;2024-02-26T14:45:24;9.40;99.90
15625;DHT22;7912;51.376;6.126;2024-02-26T14:47:51;9.40;99.90
15625;DHT22;7912;51.376;6.126;2024-02-26T14:50:20;9.40;99.90
15625;DHT22;7912;51.376;6.126;2024-02-26T14:52:47;9.40;99.90
15625;DHT22;7912;51.376;6.126;2024-02-26T14:55:15;9.50;99.90
15625;DHT22;7912;51.376;6.126;2024-02-26T14:58:10;9.40;99.90
15625;DHT22;7912;51.376;6.126;2024-02-26T15:00:41;9.50;99.90
15625;DHT22;7912;51.376;6.126;2024-02-26T15:03:08;9.40;99.90
15625;DHT22;7912;51.376;6.126;2024-02-26T15:05:36;9.40;99.90
15625;DHT22;7912;51.376;6.126;2024-02-26T15:08:04;9.30;99.90
15625;DHT22;7912;51.376;6.126;2024-02-26T15:10:32;9.30;99.90
15625;DHT22;7912;51.376;6.126;2024-02-26T15:12:59;9.30;99.90
15625;DHT22;7912;51.376;6.126;2024-02-26T15:15:26;9.30;99.90
15625;DHT22;7912;51.376;6.126;2024-02-26T15:17:54;9.30;99.90
15625;DHT22;7912;51.376;6.126;2024-02-26T15:20:22;9.20;99.90
15625;DHT22;7912;51.376;6.126;2024-02-26T15:22:51;9.20;99.90
15625;DHT22;7912;51.376;6.126;2024-02-26T15:25:21;9.20;99.90
15625;DHT22;7912;51.376;6.126;2024-02-26T15:27:48;9.20;99.90
15625;DHT22;7912;51.376;6.126;2024-02-26T15:30:15;9.20;99.90
15625;DHT22;7912;51.376;6.126;2024-02-26T15:32:43;9.10;99.90
15625;DHT22;7912;51.376;6.126;2024-02-26T15:35:13;9.10;99.90
15625;DHT22;7912;51.376;6.126;2024-02-26T15:37:41;9.10;99.90
15625;DHT22;7912;51.376;6.126;2024-02-26T15:40:09;9.10;99.90
15625;DHT22;7912;51.376;6.126;2024-02-26T15:42:37;9.00;99.90
15625;DHT22;7912;51.376;6.126;2024-02-26T15:45:06;9.00;99.90
15625;DHT22;7912;51.376;6.126;2024-02-26T15:47:33;9.00;99.90
15625;DHT22;7912;51.376;6.126;2024-02-26T15:50:02;9.00;99.90
15625;DHT22;7912;51.376;6.126;2024-02-26T15:52:30;9.00;99.90
15625;DHT22;7912;51.376;6.126;2024-02-26T15:54:57;8.90;99.90
15625;DHT22;7912;51.376;6.126;2024-02-26T15:57:25;9.00;99.90
15625;DHT22;7912;51.376;6.126;2024-02-26T15:59:52;8.90;99.90
15625;DHT22;7912;51.376;6.126;2024-02-26T16:02:20;8.90;99.90
15625;DHT22;7912;51.376;6.126;2024-02-26T16:04:48;8.90;99.90
15625;DHT22;7912;51.376;6.126;2024-02-26T16:07:26;8.90;99.90
15625;DHT22;7912;51.376;6.126;2024-02-26T16:09:57;8.90;99.90
15625;DHT22;7912;51.376;6.126;2024-02-26T16:12:36;8.90;99.90
15625;DHT22;7912;51.376;6.126;2024-02-26T16:15:10;8.90;99.90
15625;DHT22;7912;51.376;6.126;2024-02-26T16:17:41;8.90;99.90
15625;DHT22;7912;51.376;6.126;2024-02-26T16:20:19;8.90;99.90
15625;DHT22;7912;51.376;6.126;2024-02-26T16:22:48;8.90;99.90
15625;DHT22;7912;51.376;6.126;2024-02-26T16:25:19;8.90;99.90
15625;DHT22;7912;51.376;6.126;2024-02-26T16:27:46;8.90;99.90
15625;DHT22;7912;51.376;6.126;2024-02-26T16:30:14;8.90;99.90
15625;DHT22;7912;51.376;6.126;2024-02-26T16:32:41;8.90;99.90
15625;DHT22;7912;51.376;6.126;2024-02-26T16:35:09;8.90;99.90
15625;DHT22;7912;51.376;6.126;2024-02-26T16:37:41;8.90;99.90
15625;DHT22;7912;51.376;6.126;2024-02-26T16:40:08;8.90;99.90
15625;DHT22;7912;51.376;6.126;2024-02-26T16:42:36;8.90;99.90
15625;DHT22;7912;51.376;6.126;2024-02-26T16:45:04;8.90;99.90
15625;DHT22;7912;51.376;6.126;2024-02-26T16:47:33;8.90;99.90
15625;DHT22;7912;51.376;6.126;2024-02-26T16:50:01;8.90;99.90
15625;DHT22;7912;51.376;6.126;2024-02-26T16:52:32;8.80;99.90
15625;DHT22;7912;51.376;6.126;2024-02-26T16:55:00;8.90;99.90